sensor_id;sensor_type;location;lat;lon;timestamp;temperature;humidity
11855;DHT22;5987;53.140;8.904;2023-12-20T00:00:56;6.60;99.90
11855;DHT22;5987;53.140;8.904;2023-12-20T00:04:02;6.50;99.90
11855;DHT22;5987;53.140;8.904;2023-12-20T00:07:06;6.50;99.90
11855;DHT22;5987;53.140;8.904;2023-12-20T00:10:14;6.50;99.90
11855;DHT22;5987;53.140;8.904;2023-12-20T00:13:18;6.50;99.90
11855;DHT22;5987;53.140;8.904;2023-12-20T00:16:22;6.40;99.90
11855;DHT22;5987;53.140;8.904;2023-12-20T00:19:27;6.40;99.90
11855;DHT22;5987;53.140;8.904;2023-12-20T00:22:31;6.40;99.90
11855;DHT22;5987;53.140;8.904;2023-12-20T00:25:35;6.40;99.90
11855;DHT22;5987;53.140;8.904;2023-12-20T00:28:39;6.40;99.90
11855;DHT22;5987;53.140;8.904;2023-12-20T00:31:43;6.50;99.90
11855;DHT22;5987;53.140;8.904;2023-12-20T00:34:48;6.50;99.90
11855;DHT22;5987;53.140;8.904;2023-12-20T00:37:52;6.50;99.90
11855;DHT22;5987;53.140;8.904;2023-12-20T00:40:56;6.50;99.90
11855;DHT22;5987;53.140;8.904;2023-12-20T00:44:00;6.50;99.90
11855;DHT22;5987;53.140;8.904;2023-12-20T00:47:04;6.50;99.90
11855;DHT22;5987;53.140;8.904;2023-12-20T00:50:09;6.50;99.90
11855;DHT22;5987;53.140;8.904;2023-12-20T00:53:13;6.50;99.90
11855;DHT22;5987;53.140;8.904;2023-12-20T00:56:17;6.50;99.90
11855;DHT22;5987;53.140;8.904;2023-12-20T00:59:21;6.40;99.90
11855;DHT22;5987;53.140;8.904;2023-12-20T01:02:25;6.40;99.90
11855;DHT22;5987;53.140;8.904;2023-12-20T01:05:30;6.40;99.90
11855;DHT22;5987;53.140;8.904;2023-12-20T01:08:33;6.40;99.90
11855;DHT22;5987;53.140;8.904;2023-12-20T01:11:37;6.30;99.90
11855;DHT22;5987;53.140;8.904;2023-12-20T01:14:41;6.30;99.90
11855;DHT22;5987;53.140;8.904;2023-12-20T01:17:45;6.30;99.90
11855;DHT22;5987;53.140;8.904;2023-12-20T01:20:51;6.30;99.90
11855;DHT22;5987;53.140;8.904;2023-12-20T01:23:55;6.30;99.90
11855;DHT22;5987;53.140;8.904;2023-12-20T01:26:58;6.20;99.90
11855;DHT22;5987;53.140;8.904;2023-12-20T01:30:02;6.20;99.90
11855;DHT22;5987;53.140;8.904;2023-12-20T01:33:07;6.20;99.90
11855;DHT22;5987;53.140;8.904;2023-12-20T01:36:12;6.10;99.90
11855;DHT22;5987;53.140;8.904;2023-12-20T01:39:17;6.20;99.90
11855;DHT22;5987;53.140;8.904;2023-12-20T01:42:30;6.10;99.90
11855;DHT22;5987;53.140;8.904;2023-12-20T01:45:34;6.10;99.90
11855;DHT22;5987;53.140;8.904;2023-12-20T01:48:38;6.10;99.90
11855;DHT22;5987;53.140;8.904;2023-12-20T01:51:44;6.00;99.90
11855;DHT22;5987;53.140;8.904;2023-12-20T01:54:49;6.00;99.90
11855;DHT22;5987;53.140;8.904;2023-12-20T01:57:53;6.00;99.90
11855;DHT22;5987;53.140;8.904;2023-12-20T02:00:57;6.00;99.90
11855;DHT22;5987;53.140;8.904;2023-12-20T02:04:02;6.00;99.90
11855;DHT22;5987;53.140;8.904;2023-12-20T02:07:08;6.00;99.90
11855;DHT22;5987;53.140;8.904;2023-12-20T02:10:16;6.10;99.90
11855;DHT22;5987;53.140;8.904;2023-12-20T02:13:20;6.00;99.90
11855;DHT22;5987;53.140;8.904;2023-12-20T02:16:24;6.00;99.90
11855;DHT22;5987;53.140;8.904;2023-12-20T02:19:28;6.00;99.90
11855;DHT22;5987;53.140;8.904;2023-12-20T02:22:33;6.00;99.90
11855;DHT22;5987;53.140;8.904;2023-12-20T02:25:37;6.00;99.90
11855;DHT22;5987;53.140;8.904;2023-12-20T02:28:41;6.00;99.90
11855;DHT22;5987;53.140;8.904;2023-12-20T02:31:45;6.10;99.90
11855;DHT22;5987;53.140;8.904;2023-12-20T02:34:50;6.10;99.90
11855;DHT22;5987;53.140;8.904;2023-12-20T02:37:55;6.10;99.90
11855;DHT22;5987;53.140;8.904;2023-12-20T02:40:59;6.10;99.90
11855;DHT22;5987;53.140;8.904;2023-12-20T02:44:03;6.10;99.90
11855;DHT22;5987;53.140;8.904;2023-12-20T02:47:07;6.10;99.90
11855;DHT22;5987;53.140;8.904;2023-12-20T02:50:11;6.10;99.90
11855;DHT22;5987;53.140;8.904;2023-12-20T02:53:17;6.20;99.90
11855;DHT22;5987;53.140;8.904;2023-12-20T02:56:21;6.20;99.90
11855;DHT22;5987;53.140;8.904;2023-12-20T02:59:24;6.20;99.90
11855;DHT22;5987;53.140;8.904;2023-12-20T03:02:28;6.20;99.90
11855;DHT22;5987;53.140;8.904;2023-12-20T03:05:33;6.30;99.90
11855;DHT22;5987;53.140;8.904;2023-12-20T03:08:38;6.30;99.90
11855;DHT22;5987;53.140;8.904;2023-12-20T03:11:43;6.20;99.90
11855;DHT22;5987;53.140;8.904;2023-12-20T03:14:48;6.20;99.90
11855;DHT22;5987;53.140;8.904;2023-12-20T03:17:52;6.30;99.90
11855;DHT22;5987;53.140;8.904;2023-12-20T03:20:56;6.30;99.90
11855;DHT22;5987;53.140;8.904;2023-12-20T03:24:01;6.30;99.90
11855;DHT22;5987;53.140;8.904;2023-12-20T03:27:05;6.30;99.90
11855;DHT22;5987;53.140;8.904;2023-12-20T03:30:11;6.30;99.90
11855;DHT22;5987;53.140;8.904;2023-12-20T03:33:16;6.30;99.90
11855;DHT22;5987;53.140;8.904;2023-12-20T03:36:20;6.30;99.90
11855;DHT22;5987;53.140;8.904;2023-12-20T03:39:25;6.40;99.90
11855;DHT22;5987;53.140;8.904;2023-12-20T03:42:29;6.40;99.90
11855;DHT22;5987;53.140;8.904;2023-12-20T03:45:33;6.40;99.90
11855;DHT22;5987;53.140;8.904;2023-12-20T03:48:37;6.40;99.90
11855;DHT22;5987;53.140;8.904;2023-12-20T03:51:41;6.40;99.90
11855;DHT22;5987;53.140;8.904;2023-12-20T03:54:46;6.40;99.90
11855;DHT22;5987;53.140;8.904;2023-12-20T03:57:50;6.40;99.90
11855;DHT22;5987;53.140;8.904;2023-12-20T04:00:54;6.40;99.90
11855;DHT22;5987;53.140;8.904;2023-12-20T04:03:58;6.40;99.90
11855;DHT22;5987;53.140;8.904;2023-12-20T04:07:02;6.40;99.90
11855;DHT22;5987;53.140;8.904;2023-12-20T04:10:08;6.40;99.90
11855;DHT22;5987;53.140;8.904;2023-12-20T04:13:13;6.40;99.90
11855;DHT22;5987;53.140;8.904;2023-12-20T04:16:17;6.50;99.90
11855;DHT22;5987;53.140;8.904;2023-12-20T04:19:20;6.50;99.90
11855;DHT22;5987;53.140;8.904;2023-12-20T04:22:24;6.50;99.90
11855;DHT22;5987;53.140;8.904;2023-12-20T04:25:30;6.50;99.90
11855;DHT22;5987;53.140;8.904;2023-12-20T04:28:33;6.50;99.90
11855;DHT22;5987;53.140;8.904;2023-12-20T04:31:37;6.50;99.90
11855;DHT22;5987;53.140;8.904;2023-12-20T04:34:41;6.50;99.90
11855;DHT22;5987;53.140;8.904;2023-12-20T04:37:45;6.50;99.90
11855;DHT22;5987;53.140;8.904;2023-12-20T04:40:52;6.60;99.90
11855;DHT22;5987;53.140;8.904;2023-12-20T04:43:56;6.60;99.90
11855;DHT22;5987;53.140;8.904;2023-12-20T04:47:00;6.60;99.90
11855;DHT22;5987;53.140;8.904;2023-12-20T04:50:05;6.60;99.90
11855;DHT22;5987;53.140;8.904;2023-12-20T04:53:10;6.60;99.90
11855;DHT22;5987;53.140;8.904;2023-12-20T04:56:15;6.60;99.90
11855;DHT22;5987;53.140;8.904;2023-12-20T04:59:19;6.60;99.90
11855;DHT22;5987;53.140;8.904;2023-12-20T05:02:23;6.60;99.90
11855;DHT22;5987;53.140;8.904;2023-12-20T05:05:27;6.60;99.90
11855;DHT22;5987;53.140;8.904;2023-12-20T05:08:31;6.60;99.90
11855;DHT22;5987;53.140;8.904;2023-12-20T05:11:36;6.60;99.90
11855;DHT22;5987;53.140;8.904;2023-12-20T05:14:40;6.60;99.90
11855;DHT22;5987;53.140;8.904;2023-12-20T05:17:43;6.70;99.90
11855;DHT22;5987;53.140;8.904;2023-12-20T05:20:48;6.70;99.90
11855;DHT22;5987;53.140;8.904;2023-12-20T05:23:52;6.60;99.90
11855;DHT22;5987;53.140;8.904;2023-12-20T05:26:57;6.60;99.90
11855;DHT22;5987;53.140;8.904;2023-12-20T05:30:01;6.60;99.90
11855;DHT22;5987;53.140;8.904;2023-12-20T05:33:06;6.70;99.90
11855;DHT22;5987;53.140;8.904;2023-12-20T05:36:11;6.70;99.90
11855;DHT22;5987;53.140;8.904;2023-12-20T05:39:17;6.70;99.90
11855;DHT22;5987;53.140;8.904;2023-12-20T05:42:22;6.70;99.90
11855;DHT22;5987;53.140;8.904;2023-12-20T05:45:26;6.70;99.90
11855;DHT22;5987;53.140;8.904;2023-12-20T05:48:30;6.70;99.90
11855;DHT22;5987;53.140;8.904;2023-12-20T05:51:34;6.70;99.90
11855;DHT22;5987;53.140;8.904;2023-12-20T05:54:38;6.80;99.90
11855;DHT22;5987;53.140;8.904;2023-12-20T05:57:43;6.80;99.90
11855;DHT22;5987;53.140;8.904;2023-12-20T06:00:47;6.80;99.90
11855;DHT22;5987;53.140;8.904;2023-12-20T06:03:52;6.80;99.90
11855;DHT22;5987;53.140;8.904;2023-12-20T06:06:56;6.80;99.90
11855;DHT22;5987;53.140;8.904;2023-12-20T06:10:00;6.80;99.90
11855;DHT22;5987;53.140;8.904;2023-12-20T06:13:05;6.80;99.90
11855;DHT22;5987;53.140;8.904;2023-12-20T06:16:09;6.80;99.90
11855;DHT22;5987;53.140;8.904;2023-12-20T06:19:13;6.80;99.90
11855;DHT22;5987;53.140;8.904;2023-12-20T06:22:17;6.70;99.90
11855;DHT22;5987;53.140;8.904;2023-12-20T06:25:21;6.70;99.90
11855;DHT22;5987;53.140;8.904;2023-12-20T06:28:26;6.80;99.90
11855;DHT22;5987;53.140;8.904;2023-12-20T06:31:30;6.80;99.90
11855;DHT22;5987;53.140;8.904;2023-12-20T06:34:35;6.80;99.90
11855;DHT22;5987;53.140;8.904;2023-12-20T06:37:40;6.80;99.90
11855;DHT22;5987;53.140;8.904;2023-12-20T06:40:45;6.90;99.90
11855;DHT22;5987;53.140;8.904;2023-12-20T06:43:50;6.90;99.90
11855;DHT22;5987;53.140;8.904;2023-12-20T06:46:55;7.00;99.90
11855;DHT22;5987;53.140;8.904;2023-12-20T06:49:59;7.00;99.90
11855;DHT22;5987;53.140;8.904;2023-12-20T06:53:03;7.00;99.90
11855;DHT22;5987;53.140;8.904;2023-12-20T06:56:11;6.90;99.90
11855;DHT22;5987;53.140;8.904;2023-12-20T06:59:21;6.90;99.90
11855;DHT22;5987;53.140;8.904;2023-12-20T07:02:24;7.00;99.90
11855;DHT22;5987;53.140;8.904;2023-12-20T07:05:31;7.00;99.90
11855;DHT22;5987;53.140;8.904;2023-12-20T07:08:35;7.00;99.90
11855;DHT22;5987;53.140;8.904;2023-12-20T07:11:39;7.00;99.90
11855;DHT22;5987;53.140;8.904;2023-12-20T07:14:44;7.00;99.90
11855;DHT22;5987;53.140;8.904;2023-12-20T07:17:48;7.10;99.90
11855;DHT22;5987;53.140;8.904;2023-12-20T07:20:52;7.10;99.90
11855;DHT22;5987;53.140;8.904;2023-12-20T07:23:57;7.10;99.90
11855;DHT22;5987;53.140;8.904;2023-12-20T07:27:01;7.00;99.90
11855;DHT22;5987;53.140;8.904;2023-12-20T07:30:08;7.10;99.90
11855;DHT22;5987;53.140;8.904;2023-12-20T07:33:13;7.00;99.90
11855;DHT22;5987;53.140;8.904;2023-12-20T07:36:18;7.10;99.90
11855;DHT22;5987;53.140;8.904;2023-12-20T07:39:23;7.10;99.90
11855;DHT22;5987;53.140;8.904;2023-12-20T07:42:27;7.10;99.90
11855;DHT22;5987;53.140;8.904;2023-12-20T07:45:32;7.10;99.90
11855;DHT22;5987;53.140;8.904;2023-12-20T07:48:36;7.20;99.90
11855;DHT22;5987;53.140;8.904;2023-12-20T07:51:44;7.20;99.90
11855;DHT22;5987;53.140;8.904;2023-12-20T07:54:48;7.20;99.90
11855;DHT22;5987;53.140;8.904;2023-12-20T07:57:52;7.20;99.90
11855;DHT22;5987;53.140;8.904;2023-12-20T08:00:57;7.20;99.90
11855;DHT22;5987;53.140;8.904;2023-12-20T08:04:01;7.30;99.90
11855;DHT22;5987;53.140;8.904;2023-12-20T08:07:05;7.30;99.90
11855;DHT22;5987;53.140;8.904;2023-12-20T08:10:10;7.30;99.90
11855;DHT22;5987;53.140;8.904;2023-12-20T08:13:15;7.30;99.90
11855;DHT22;5987;53.140;8.904;2023-12-20T08:16:21;7.40;99.90
11855;DHT22;5987;53.140;8.904;2023-12-20T08:19:25;7.30;99.90
11855;DHT22;5987;53.140;8.904;2023-12-20T08:22:29;7.40;99.90
11855;DHT22;5987;53.140;8.904;2023-12-20T08:25:33;7.40;99.90
11855;DHT22;5987;53.140;8.904;2023-12-20T08:28:37;7.40;99.90
11855;DHT22;5987;53.140;8.904;2023-12-20T08:31:42;7.40;99.90
11855;DHT22;5987;53.140;8.904;2023-12-20T08:34:47;7.40;99.90
11855;DHT22;5987;53.140;8.904;2023-12-20T08:37:50;7.40;99.90
11855;DHT22;5987;53.140;8.904;2023-12-20T08:40:54;7.50;99.90
11855;DHT22;5987;53.140;8.904;2023-12-20T08:43:58;7.50;99.90
11855;DHT22;5987;53.140;8.904;2023-12-20T08:47:04;7.50;99.90
11855;DHT22;5987;53.140;8.904;2023-12-20T08:50:08;7.60;99.90
11855;DHT22;5987;53.140;8.904;2023-12-20T08:53:12;7.60;99.90
11855;DHT22;5987;53.140;8.904;2023-12-20T08:56:17;7.60;99.90
11855;DHT22;5987;53.140;8.904;2023-12-20T08:59:21;7.60;99.90
11855;DHT22;5987;53.140;8.904;2023-12-20T09:02:26;7.50;99.90
11855;DHT22;5987;53.140;8.904;2023-12-20T09:05:31;7.50;99.90
11855;DHT22;5987;53.140;8.904;2023-12-20T09:08:35;7.50;99.90
11855;DHT22;5987;53.140;8.904;2023-12-20T09:11:39;7.50;99.90
11855;DHT22;5987;53.140;8.904;2023-12-20T09:14:43;7.50;99.90
11855;DHT22;5987;53.140;8.904;2023-12-20T09:17:48;7.50;99.90
11855;DHT22;5987;53.140;8.904;2023-12-20T09:20:52;7.50;99.90
11855;DHT22;5987;53.140;8.904;2023-12-20T09:23:56;7.50;99.90
11855;DHT22;5987;53.140;8.904;2023-12-20T09:27:00;7.50;99.90
11855;DHT22;5987;53.140;8.904;2023-12-20T09:30:05;7.40;99.90
11855;DHT22;5987;53.140;8.904;2023-12-20T09:33:11;7.40;99.90
11855;DHT22;5987;53.140;8.904;2023-12-20T09:36:15;7.40;99.90
11855;DHT22;5987;53.140;8.904;2023-12-20T09:39:20;7.40;99.90
11855;DHT22;5987;53.140;8.904;2023-12-20T09:42:30;7.40;99.90
11855;DHT22;5987;53.140;8.904;2023-12-20T09:45:46;7.30;99.90
11855;DHT22;5987;53.140;8.904;2023-12-20T09:48:53;7.10;99.90
11855;DHT22;5987;53.140;8.904;2023-12-20T09:51:57;6.90;99.90
11855;DHT22;5987;53.140;8.904;2023-12-20T09:55:05;6.60;99.90
11855;DHT22;5987;53.140;8.904;2023-12-20T09:58:12;6.50;99.90
11855;DHT22;5987;53.140;8.904;2023-12-20T10:01:16;6.40;99.90
11855;DHT22;5987;53.140;8.904;2023-12-20T10:04:23;6.40;99.90
11855;DHT22;5987;53.140;8.904;2023-12-20T10:07:31;6.50;99.90
11855;DHT22;5987;53.140;8.904;2023-12-20T10:10:35;6.50;99.90
11855;DHT22;5987;53.140;8.904;2023-12-20T10:13:49;6.50;99.90
11855;DHT22;5987;53.140;8.904;2023-12-20T10:17:02;6.50;99.90
11855;DHT22;5987;53.140;8.904;2023-12-20T10:20:09;6.50;99.90
11855;DHT22;5987;53.140;8.904;2023-12-20T10:23:13;6.60;99.90
11855;DHT22;5987;53.140;8.904;2023-12-20T10:26:20;6.60;99.90
11855;DHT22;5987;53.140;8.904;2023-12-20T10:29:25;6.60;99.90
11855;DHT22;5987;53.140;8.904;2023-12-20T10:32:28;6.60;99.90
11855;DHT22;5987;53.140;8.904;2023-12-20T10:35:34;6.50;99.90
11855;DHT22;5987;53.140;8.904;2023-12-20T10:38:40;6.60;99.90
11855;DHT22;5987;53.140;8.904;2023-12-20T10:41:46;6.50;99.90
11855;DHT22;5987;53.140;8.904;2023-12-20T10:44:50;6.50;99.90
11855;DHT22;5987;53.140;8.904;2023-12-20T10:47:56;6.50;99.90
11855;DHT22;5987;53.140;8.904;2023-12-20T10:51:04;6.50;99.90
11855;DHT22;5987;53.140;8.904;2023-12-20T10:54:09;6.60;99.90
11855;DHT22;5987;53.140;8.904;2023-12-20T10:57:14;6.60;99.90
11855;DHT22;5987;53.140;8.904;2023-12-20T11:00:22;6.60;99.90
11855;DHT22;5987;53.140;8.904;2023-12-20T11:03:27;6.60;99.90
11855;DHT22;5987;53.140;8.904;2023-12-20T11:06:43;6.70;99.90
11855;DHT22;5987;53.140;8.904;2023-12-20T11:09:57;6.70;99.90
11855;DHT22;5987;53.140;8.904;2023-12-20T11:13:10;6.70;99.90
11855;DHT22;5987;53.140;8.904;2023-12-20T11:16:20;6.80;99.90
11855;DHT22;5987;53.140;8.904;2023-12-20T11:19:27;6.80;99.90
11855;DHT22;5987;53.140;8.904;2023-12-20T11:22:33;6.90;99.90
11855;DHT22;5987;53.140;8.904;2023-12-20T11:25:48;6.90;99.90
11855;DHT22;5987;53.140;8.904;2023-12-20T11:29:32;6.90;99.90
11855;DHT22;5987;53.140;8.904;2023-12-20T11:32:37;7.00;99.90
11855;DHT22;5987;53.140;8.904;2023-12-20T11:35:45;7.00;99.90
11855;DHT22;5987;53.140;8.904;2023-12-20T11:38:57;7.00;99.90
11855;DHT22;5987;53.140;8.904;2023-12-20T11:42:04;7.00;99.90
11855;DHT22;5987;53.140;8.904;2023-12-20T11:45:10;6.90;99.90
11855;DHT22;5987;53.140;8.904;2023-12-20T11:48:17;7.00;99.90
11855;DHT22;5987;53.140;8.904;2023-12-20T11:51:22;7.00;99.90
11855;DHT22;5987;53.140;8.904;2023-12-20T11:54:31;7.00;99.90
11855;DHT22;5987;53.140;8.904;2023-12-20T11:57:36;7.00;99.90
11855;DHT22;5987;53.140;8.904;2023-12-20T12:00:41;7.10;99.90
11855;DHT22;5987;53.140;8.904;2023-12-20T12:03:45;7.10;99.90
11855;DHT22;5987;53.140;8.904;2023-12-20T12:06:49;7.20;99.90
11855;DHT22;5987;53.140;8.904;2023-12-20T12:09:55;7.30;99.90
11855;DHT22;5987;53.140;8.904;2023-12-20T12:12:59;7.30;99.90
11855;DHT22;5987;53.140;8.904;2023-12-20T12:16:06;7.30;99.90
11855;DHT22;5987;53.140;8.904;2023-12-20T12:19:20;7.40;99.90
11855;DHT22;5987;53.140;8.904;2023-12-20T12:22:26;7.40;99.90
11855;DHT22;5987;53.140;8.904;2023-12-20T12:25:34;7.40;99.90
11855;DHT22;5987;53.140;8.904;2023-12-20T12:28:44;7.30;99.90
11855;DHT22;5987;53.140;8.904;2023-12-20T12:31:51;7.20;99.90
11855;DHT22;5987;53.140;8.904;2023-12-20T12:34:55;7.10;99.90
11855;DHT22;5987;53.140;8.904;2023-12-20T12:37:59;7.00;99.90
11855;DHT22;5987;53.140;8.904;2023-12-20T12:41:06;6.90;99.90
11855;DHT22;5987;53.140;8.904;2023-12-20T12:44:12;6.80;99.90
11855;DHT22;5987;53.140;8.904;2023-12-20T12:47:19;6.70;99.90
11855;DHT22;5987;53.140;8.904;2023-12-20T12:50:23;6.70;99.90
11855;DHT22;5987;53.140;8.904;2023-12-20T12:53:27;6.70;99.90
11855;DHT22;5987;53.140;8.904;2023-12-20T12:56:32;6.80;99.90
11855;DHT22;5987;53.140;8.904;2023-12-20T12:59:36;6.90;99.90
11855;DHT22;5987;53.140;8.904;2023-12-20T13:02:42;6.90;99.90
11855;DHT22;5987;53.140;8.904;2023-12-20T13:05:46;7.00;99.90
11855;DHT22;5987;53.140;8.904;2023-12-20T13:08:50;7.00;99.90
11855;DHT22;5987;53.140;8.904;2023-12-20T13:11:55;6.90;99.90
11855;DHT22;5987;53.140;8.904;2023-12-20T13:14:59;6.90;99.90
11855;DHT22;5987;53.140;8.904;2023-12-20T13:18:04;7.00;99.90
11855;DHT22;5987;53.140;8.904;2023-12-20T13:21:09;7.00;99.90
11855;DHT22;5987;53.140;8.904;2023-12-20T13:24:13;7.10;99.90
11855;DHT22;5987;53.140;8.904;2023-12-20T13:27:18;7.10;99.90
11855;DHT22;5987;53.140;8.904;2023-12-20T13:30:22;7.10;99.90
11855;DHT22;5987;53.140;8.904;2023-12-20T13:33:26;7.20;99.90
11855;DHT22;5987;53.140;8.904;2023-12-20T13:36:30;7.30;99.90
11855;DHT22;5987;53.140;8.904;2023-12-20T13:39:33;7.40;99.90
11855;DHT22;5987;53.140;8.904;2023-12-20T13:42:39;7.40;99.90
11855;DHT22;5987;53.140;8.904;2023-12-20T13:45:46;7.30;99.90
11855;DHT22;5987;53.140;8.904;2023-12-20T13:48:50;7.40;99.90
11855;DHT22;5987;53.140;8.904;2023-12-20T13:51:54;7.30;99.90
11855;DHT22;5987;53.140;8.904;2023-12-20T13:54:59;7.30;99.90
11855;DHT22;5987;53.140;8.904;2023-12-20T13:58:05;7.30;99.90
11855;DHT22;5987;53.140;8.904;2023-12-20T14:01:10;7.30;99.90
11855;DHT22;5987;53.140;8.904;2023-12-20T14:04:14;7.30;99.90
11855;DHT22;5987;53.140;8.904;2023-12-20T14:07:37;7.30;99.90
11855;DHT22;5987;53.140;8.904;2023-12-20T14:10:42;7.20;99.90
11855;DHT22;5987;53.140;8.904;2023-12-20T14:13:47;7.30;99.90
11855;DHT22;5987;53.140;8.904;2023-12-20T14:16:51;7.20;99.90
11855;DHT22;5987;53.140;8.904;2023-12-20T14:19:55;7.20;99.90
11855;DHT22;5987;53.140;8.904;2023-12-20T14:22:59;7.20;99.90
11855;DHT22;5987;53.140;8.904;2023-12-20T14:26:03;7.20;99.90
11855;DHT22;5987;53.140;8.904;2023-12-20T14:29:08;7.20;99.90
11855;DHT22;5987;53.140;8.904;2023-12-20T14:32:12;7.20;99.90
11855;DHT22;5987;53.140;8.904;2023-12-20T14:35:17;7.20;99.90
11855;DHT22;5987;53.140;8.904;2023-12-20T14:38:22;7.20;99.90
11855;DHT22;5987;53.140;8.904;2023-12-20T14:41:25;7.20;99.90
11855;DHT22;5987;53.140;8.904;2023-12-20T14:44:34;7.20;99.90
11855;DHT22;5987;53.140;8.904;2023-12-20T14:47:38;7.10;99.90
11855;DHT22;5987;53.140;8.904;2023-12-20T14:50:42;7.10;99.90
11855;DHT22;5987;53.140;8.904;2023-12-20T14:53:48;7.10;99.90
11855;DHT22;5987;53.140;8.904;2023-12-20T14:56:52;7.10;99.90
11855;DHT22;5987;53.140;8.904;2023-12-20T14:59:58;7.10;99.90
11855;DHT22;5987;53.140;8.904;2023-12-20T15:03:02;7.10;99.90
11855;DHT22;5987;53.140;8.904;2023-12-20T15:06:07;7.10;99.90
11855;DHT22;5987;53.140;8.904;2023-12-20T15:09:13;7.10;99.90
11855;DHT22;5987;53.140;8.904;2023-12-20T15:12:17;7.10;99.90
11855;DHT22;5987;53.140;8.904;2023-12-20T15:15:23;7.20;99.90
11855;DHT22;5987;53.140;8.904;2023-12-20T15:18:27;7.20;99.90
11855;DHT22;5987;53.140;8.904;2023-12-20T15:21:32;7.20;99.90
11855;DHT22;5987;53.140;8.904;2023-12-20T15:24:46;7.20;99.90
11855;DHT22;5987;53.140;8.904;2023-12-20T15:27:50;7.20;99.90
11855;DHT22;5987;53.140;8.904;2023-12-20T15:30:57;7.20;99.90
11855;DHT22;5987;53.140;8.904;2023-12-20T15:34:01;7.20;99.90
11855;DHT22;5987;53.140;8.904;2023-12-20T15:37:05;7.20;99.90
11855;DHT22;5987;53.140;8.904;2023-12-20T15:40:10;7.20;99.90
11855;DHT22;5987;53.140;8.904;2023-12-20T15:43:14;7.20;99.90
11855;DHT22;5987;53.140;8.904;2023-12-20T15:46:20;7.20;99.90
11855;DHT22;5987;53.140;8.904;2023-12-20T15:49:24;7.10;99.90
11855;DHT22;5987;53.140;8.904;2023-12-20T15:52:28;7.10;99.90
11855;DHT22;5987;53.140;8.904;2023-12-20T15:55:32;7.10;99.90
11855;DHT22;5987;53.140;8.904;2023-12-20T15:58:36;7.10;99.90
11855;DHT22;5987;53.140;8.904;2023-12-20T16:01:41;7.10;99.90
11855;DHT22;5987;53.140;8.904;2023-12-20T16:04:54;7.00;99.90
11855;DHT22;5987;53.140;8.904;2023-12-20T16:07:58;6.90;99.90
11855;DHT22;5987;53.140;8.904;2023-12-20T16:11:02;6.80;99.90
11855;DHT22;5987;53.140;8.904;2023-12-20T16:14:06;6.80;99.90
11855;DHT22;5987;53.140;8.904;2023-12-20T16:17:13;6.80;99.90
11855;DHT22;5987;53.140;8.904;2023-12-20T16:20:18;6.80;99.90
11855;DHT22;5987;53.140;8.904;2023-12-20T16:23:22;6.90;99.90
11855;DHT22;5987;53.140;8.904;2023-12-20T16:26:26;6.90;99.90
11855;DHT22;5987;53.140;8.904;2023-12-20T16:29:30;6.80;99.90
11855;DHT22;5987;53.140;8.904;2023-12-20T16:32:35;6.80;99.90
11855;DHT22;5987;53.140;8.904;2023-12-20T16:35:39;6.80;99.90
11855;DHT22;5987;53.140;8.904;2023-12-20T16:38:43;6.80;99.90
11855;DHT22;5987;53.140;8.904;2023-12-20T16:41:47;6.80;99.90
11855;DHT22;5987;53.140;8.904;2023-12-20T16:44:51;6.70;99.90
11855;DHT22;5987;53.140;8.904;2023-12-20T16:47:56;6.60;99.90
11855;DHT22;5987;53.140;8.904;2023-12-20T16:51:00;6.40;99.90
11855;DHT22;5987;53.140;8.904;2023-12-20T16:54:04;6.50;99.90
11855;DHT22;5987;53.140;8.904;2023-12-20T16:57:08;6.50;99.90
11855;DHT22;5987;53.140;8.904;2023-12-20T17:00:13;6.50;99.90
11855;DHT22;5987;53.140;8.904;2023-12-20T17:03:19;6.40;99.90
11855;DHT22;5987;53.140;8.904;2023-12-20T17:06:27;6.40;99.90
11855;DHT22;5987;53.140;8.904;2023-12-20T17:09:30;6.40;99.90
11855;DHT22;5987;53.140;8.904;2023-12-20T17:12:34;6.40;99.90
11855;DHT22;5987;53.140;8.904;2023-12-20T17:15:38;6.40;99.90
11855;DHT22;5987;53.140;8.904;2023-12-20T17:18:44;6.40;99.90
11855;DHT22;5987;53.140;8.904;2023-12-20T17:21:51;6.40;99.90
11855;DHT22;5987;53.140;8.904;2023-12-20T17:24:55;6.40;99.90
11855;DHT22;5987;53.140;8.904;2023-12-20T17:27:59;6.40;99.90
11855;DHT22;5987;53.140;8.904;2023-12-20T17:31:03;6.40;99.90
11855;DHT22;5987;53.140;8.904;2023-12-20T17:34:18;6.50;99.90
11855;DHT22;5987;53.140;8.904;2023-12-20T17:37:22;6.50;99.90
11855;DHT22;5987;53.140;8.904;2023-12-20T17:40:26;6.50;99.90
11855;DHT22;5987;53.140;8.904;2023-12-20T17:43:30;6.50;99.90
11855;DHT22;5987;53.140;8.904;2023-12-20T17:46:34;6.50;99.90
11855;DHT22;5987;53.140;8.904;2023-12-20T17:49:40;6.50;99.90
11855;DHT22;5987;53.140;8.904;2023-12-20T17:52:44;6.60;99.90
11855;DHT22;5987;53.140;8.904;2023-12-20T17:55:47;6.50;99.90
11855;DHT22;5987;53.140;8.904;2023-12-20T17:58:51;6.60;99.90
11855;DHT22;5987;53.140;8.904;2023-12-20T18:01:56;6.60;99.90
11855;DHT22;5987;53.140;8.904;2023-12-20T18:05:01;6.60;99.90
11855;DHT22;5987;53.140;8.904;2023-12-20T18:08:06;6.70;99.90
11855;DHT22;5987;53.140;8.904;2023-12-20T18:11:10;6.70;99.90
11855;DHT22;5987;53.140;8.904;2023-12-20T18:14:14;6.70;99.90
11855;DHT22;5987;53.140;8.904;2023-12-20T18:17:18;6.70;99.90
11855;DHT22;5987;53.140;8.904;2023-12-20T18:20:24;6.70;99.90
11855;DHT22;5987;53.140;8.904;2023-12-20T18:23:28;6.60;99.90
11855;DHT22;5987;53.140;8.904;2023-12-20T18:26:31;6.60;99.90
11855;DHT22;5987;53.140;8.904;2023-12-20T18:29:38;6.60;99.90
11855;DHT22;5987;53.140;8.904;2023-12-20T18:32:42;6.60;99.90
11855;DHT22;5987;53.140;8.904;2023-12-20T18:35:48;6.60;99.90
11855;DHT22;5987;53.140;8.904;2023-12-20T18:38:51;6.60;99.90
11855;DHT22;5987;53.140;8.904;2023-12-20T18:41:55;6.60;99.90
11855;DHT22;5987;53.140;8.904;2023-12-20T18:44:59;6.60;99.90
11855;DHT22;5987;53.140;8.904;2023-12-20T18:48:06;6.60;99.90
11855;DHT22;5987;53.140;8.904;2023-12-20T18:51:12;6.60;99.90
11855;DHT22;5987;53.140;8.904;2023-12-20T18:54:16;6.50;99.90
11855;DHT22;5987;53.140;8.904;2023-12-20T18:57:20;6.60;99.90
11855;DHT22;5987;53.140;8.904;2023-12-20T19:00:26;6.50;99.90
11855;DHT22;5987;53.140;8.904;2023-12-20T19:03:31;6.60;99.90
11855;DHT22;5987;53.140;8.904;2023-12-20T19:06:37;6.60;99.90
11855;DHT22;5987;53.140;8.904;2023-12-20T19:09:41;6.60;99.90
11855;DHT22;5987;53.140;8.904;2023-12-20T19:12:45;6.70;99.90
11855;DHT22;5987;53.140;8.904;2023-12-20T19:15:48;6.60;99.90
11855;DHT22;5987;53.140;8.904;2023-12-20T19:18:52;6.60;99.90
11855;DHT22;5987;53.140;8.904;2023-12-20T19:21:58;6.60;99.90
11855;DHT22;5987;53.140;8.904;2023-12-20T19:25:02;6.70;99.90
11855;DHT22;5987;53.140;8.904;2023-12-20T19:28:11;6.60;99.90
11855;DHT22;5987;53.140;8.904;2023-12-20T19:31:15;6.60;99.90
11855;DHT22;5987;53.140;8.904;2023-12-20T19:34:19;6.60;99.90
11855;DHT22;5987;53.140;8.904;2023-12-20T19:37:24;6.60;99.90
11855;DHT22;5987;53.140;8.904;2023-12-20T19:40:28;6.50;99.90
11855;DHT22;5987;53.140;8.904;2023-12-20T19:43:32;6.50;99.90
11855;DHT22;5987;53.140;8.904;2023-12-20T19:46:36;6.50;99.90
11855;DHT22;5987;53.140;8.904;2023-12-20T19:49:40;6.50;99.90
11855;DHT22;5987;53.140;8.904;2023-12-20T19:52:45;6.50;99.90
11855;DHT22;5987;53.140;8.904;2023-12-20T19:55:49;6.50;99.90
11855;DHT22;5987;53.140;8.904;2023-12-20T19:58:53;6.50;99.90
11855;DHT22;5987;53.140;8.904;2023-12-20T20:01:58;6.50;99.90
11855;DHT22;5987;53.140;8.904;2023-12-20T20:05:03;6.50;99.90
11855;DHT22;5987;53.140;8.904;2023-12-20T20:08:10;6.50;99.90